sensor_id;sensor_type;location;lat;lon;timestamp;P1;durP1;ratioP1;P2;durP2;ratioP2
30543;SDS011;43388;46.308;4.600;2023-07-29T00:02:08;2.03;;;1.92;;
30543;SDS011;43388;46.308;4.600;2023-07-29T00:04:35;4.35;;;1.73;;
30543;SDS011;43388;46.308;4.600;2023-07-29T00:07:01;1.83;;;1.70;;
30543;SDS011;43388;46.308;4.600;2023-07-29T00:09:27;2.35;;;1.70;;
30543;SDS011;43388;46.308;4.600;2023-07-29T00:11:53;2.08;;;1.90;;
30543;SDS011;43388;46.308;4.600;2023-07-29T00:14:19;4.32;;;1.45;;
30543;SDS011;43388;46.308;4.600;2023-07-29T00:16:45;4.38;;;1.92;;
30543;SDS011;43388;46.308;4.600;2023-07-29T00:19:11;1.75;;;1.65;;
30543;SDS011;43388;46.308;4.600;2023-07-29T00:21:37;2.42;;;1.75;;
30543;SDS011;43388;46.308;4.600;2023-07-29T00:24:03;1.90;;;1.80;;
30543;SDS011;43388;46.308;4.600;2023-07-29T00:26:29;2.72;;;1.50;;
30543;SDS011;43388;46.308;4.600;2023-07-29T00:28:56;2.20;;;2.00;;
30543;SDS011;43388;46.308;4.600;2023-07-29T00:31:22;1.75;;;1.65;;
30543;SDS011;43388;46.308;4.600;2023-07-29T00:33:48;2.00;;;1.80;;
30543;SDS011;43388;46.308;4.600;2023-07-29T00:36:14;2.20;;;1.80;;
30543;SDS011;43388;46.308;4.600;2023-07-29T00:38:40;1.88;;;1.77;;
30543;SDS011;43388;46.308;4.600;2023-07-29T00:41:06;1.70;;;1.60;;
30543;SDS011;43388;46.308;4.600;2023-07-29T00:43:32;1.92;;;1.65;;
30543;SDS011;43388;46.308;4.600;2023-07-29T00:45:59;2.33;;;1.75;;
30543;SDS011;43388;46.308;4.600;2023-07-29T00:48:25;1.70;;;1.60;;
30543;SDS011;43388;46.308;4.600;2023-07-29T00:50:51;1.90;;;1.70;;
30543;SDS011;43388;46.308;4.600;2023-07-29T00:53:17;3.60;;;2.05;;
30543;SDS011;43388;46.308;4.600;2023-07-29T00:55:44;8.90;;;1.90;;
30543;SDS011;43388;46.308;4.600;2023-07-29T00:58:10;1.60;;;1.50;;
30543;SDS011;43388;46.308;4.600;2023-07-29T01:00:36;2.63;;;2.00;;
30543;SDS011;43388;46.308;4.600;2023-07-29T01:03:02;4.00;;;1.73;;
30543;SDS011;43388;46.308;4.600;2023-07-29T01:05:35;1.73;;;1.63;;
30543;SDS011;43388;46.308;4.600;2023-07-29T01:08:06;2.78;;;1.92;;
30543;SDS011;43388;46.308;4.600;2023-07-29T01:13:23;2.33;;;2.13;;
30543;SDS011;43388;46.308;4.600;2023-07-29T01:16:08;2.75;;;1.92;;
30543;SDS011;43388;46.308;4.600;2023-07-29T01:18:36;3.80;;;1.90;;
30543;SDS011;43388;46.308;4.600;2023-07-29T01:21:07;2.13;;;1.90;;
30543;SDS011;43388;46.308;4.600;2023-07-29T01:23:34;4.22;;;2.03;;
30543;SDS011;43388;46.308;4.600;2023-07-29T01:26:00;1.70;;;1.60;;
30543;SDS011;43388;46.308;4.600;2023-07-29T01:28:27;3.20;;;2.00;;
30543;SDS011;43388;46.308;4.600;2023-07-29T01:30:57;3.67;;;1.67;;
30543;SDS011;43388;46.308;4.600;2023-07-29T01:33:25;2.30;;;1.73;;
30543;SDS011;43388;46.308;4.600;2023-07-29T01:35:58;1.92;;;1.73;;
30543;SDS011;43388;46.308;4.600;2023-07-29T01:38:32;3.50;;;1.63;;
30543;SDS011;43388;46.308;4.600;2023-07-29T01:41:03;1.90;;;1.65;;
30543;SDS011;43388;46.308;4.600;2023-07-29T01:43:29;2.63;;;1.63;;
30543;SDS011;43388;46.308;4.600;2023-07-29T01:45:56;2.05;;;1.90;;
30543;SDS011;43388;46.308;4.600;2023-07-29T01:48:22;2.83;;;1.60;;
30543;SDS011;43388;46.308;4.600;2023-07-29T01:50:48;2.20;;;2.00;;
30543;SDS011;43388;46.308;4.600;2023-07-29T01:53:14;1.92;;;1.65;;
30543;SDS011;43388;46.308;4.600;2023-07-29T01:55:41;2.67;;;1.83;;
30543;SDS011;43388;46.308;4.600;2023-07-29T01:58:07;2.72;;;2.10;;
30543;SDS011;43388;46.308;4.600;2023-07-29T02:00:33;2.28;;;2.10;;
30543;SDS011;43388;46.308;4.600;2023-07-29T02:02:59;2.50;;;2.20;;
30543;SDS011;43388;46.308;4.600;2023-07-29T02:05:25;4.75;;;1.88;;
30543;SDS011;43388;46.308;4.600;2023-07-29T02:07:51;2.53;;;2.00;;
30543;SDS011;43388;46.308;4.600;2023-07-29T02:10:17;2.78;;;1.40;;
30543;SDS011;43388;46.308;4.600;2023-07-29T02:12:43;2.53;;;1.90;;
30543;SDS011;43388;46.308;4.600;2023-07-29T02:15:09;1.67;;;1.40;;
30543;SDS011;43388;46.308;4.600;2023-07-29T02:17:35;2.75;;;1.73;;
30543;SDS011;43388;46.308;4.600;2023-07-29T02:20:02;3.05;;;1.92;;
30543;SDS011;43388;46.308;4.600;2023-07-29T02:22:28;2.20;;;1.85;;
30543;SDS011;43388;46.308;4.600;2023-07-29T02:24:54;5.50;;;1.95;;
30543;SDS011;43388;46.308;4.600;2023-07-29T02:27:20;3.17;;;2.20;;
30543;SDS011;43388;46.308;4.600;2023-07-29T02:29:46;2.03;;;1.77;;
30543;SDS011;43388;46.308;4.600;2023-07-29T02:32:12;3.03;;;1.90;;
30543;SDS011;43388;46.308;4.600;2023-07-29T02:34:39;2.28;;;2.05;;
30543;SDS011;43388;46.308;4.600;2023-07-29T02:37:05;2.00;;;1.80;;
30543;SDS011;43388;46.308;4.600;2023-07-29T02:39:31;2.58;;;1.90;;
30543;SDS011;43388;46.308;4.600;2023-07-29T02:41:57;1.98;;;1.88;;
30543;SDS011;43388;46.308;4.600;2023-07-29T02:44:23;5.97;;;2.03;;
30543;SDS011;43388;46.308;4.600;2023-07-29T02:46:49;2.25;;;1.83;;
30543;SDS011;43388;46.308;4.600;2023-07-29T02:49:17;3.83;;;1.83;;
30543;SDS011;43388;46.308;4.600;2023-07-29T02:51:43;4.05;;;2.00;;
30543;SDS011;43388;46.308;4.600;2023-07-29T02:54:09;2.08;;;1.95;;
30543;SDS011;43388;46.308;4.600;2023-07-29T02:56:35;2.05;;;1.85;;
30543;SDS011;43388;46.308;4.600;2023-07-29T02:59:01;2.63;;;1.83;;
30543;SDS011;43388;46.308;4.600;2023-07-29T03:01:27;2.28;;;2.08;;
30543;SDS011;43388;46.308;4.600;2023-07-29T03:03:53;7.88;;;2.00;;
30543;SDS011;43388;46.308;4.600;2023-07-29T03:06:19;2.45;;;2.10;;
30543;SDS011;43388;46.308;4.600;2023-07-29T03:08:45;2.20;;;2.00;;
30543;SDS011;43388;46.308;4.600;2023-07-29T03:11:14;2.30;;;2.10;;
30543;SDS011;43388;46.308;4.600;2023-07-29T03:13:41;3.17;;;2.13;;
30543;SDS011;43388;46.308;4.600;2023-07-29T03:16:16;2.50;;;2.10;;
30543;SDS011;43388;46.308;4.600;2023-07-29T03:18:43;4.28;;;2.05;;
30543;SDS011;43388;46.308;4.600;2023-07-29T03:21:10;2.45;;;2.13;;
30543;SDS011;43388;46.308;4.600;2023-07-29T03:23:36;1.80;;;1.70;;
30543;SDS011;43388;46.308;4.600;2023-07-29T03:26:02;5.28;;;2.30;;
30543;SDS011;43388;46.308;4.600;2023-07-29T03:28:35;2.28;;;2.08;;
30543;SDS011;43388;46.308;4.600;2023-07-29T03:31:01;4.22;;;2.30;;
30543;SDS011;43388;46.308;4.600;2023-07-29T03:33:28;5.25;;;2.28;;
30543;SDS011;43388;46.308;4.600;2023-07-29T03:35:54;4.30;;;2.33;;
30543;SDS011;43388;46.308;4.600;2023-07-29T03:38:20;5.47;;;2.30;;
30543;SDS011;43388;46.308;4.600;2023-07-29T03:40:46;3.80;;;2.10;;
30543;SDS011;43388;46.308;4.600;2023-07-29T03:43:12;2.30;;;2.20;;
30543;SDS011;43388;46.308;4.600;2023-07-29T03:45:39;2.30;;;2.13;;
30543;SDS011;43388;46.308;4.600;2023-07-29T03:48:05;2.78;;;2.45;;
30543;SDS011;43388;46.308;4.600;2023-07-29T03:50:32;4.20;;;2.47;;
30543;SDS011;43388;46.308;4.600;2023-07-29T03:52:58;2.65;;;2.45;;
30543;SDS011;43388;46.308;4.600;2023-07-29T03:55:24;2.72;;;2.50;;
30543;SDS011;43388;46.308;4.600;2023-07-29T03:57:50;3.83;;;2.30;;
30543;SDS011;43388;46.308;4.600;2023-07-29T04:00:16;2.78;;;2.58;;
30543;SDS011;43388;46.308;4.600;2023-07-29T04:02:42;2.33;;;2.10;;
30543;SDS011;43388;46.308;4.600;2023-07-29T04:05:10;2.83;;;2.40;;
30543;SDS011;43388;46.308;4.600;2023-07-29T04:07:36;3.08;;;2.30;;
30543;SDS011;43388;46.308;4.600;2023-07-29T04:10:03;4.30;;;2.10;;
30543;SDS011;43388;46.308;4.600;2023-07-29T04:12:29;2.22;;;1.95;;
30543;SDS011;43388;46.308;4.600;2023-07-29T04:14:56;2.47;;;2.00;;
30543;SDS011;43388;46.308;4.600;2023-07-29T04:17:22;2.30;;;2.10;;
30543;SDS011;43388;46.308;4.600;2023-07-29T04:19:48;2.63;;;2.30;;
30543;SDS011;43388;46.308;4.600;2023-07-29T04:22:15;2.88;;;2.28;;
30543;SDS011;43388;46.308;4.600;2023-07-29T04:24:41;2.35;;;2.25;;
30543;SDS011;43388;46.308;4.600;2023-07-29T04:27:07;3.25;;;2.30;;
30543;SDS011;43388;46.308;4.600;2023-07-29T04:29:33;3.45;;;2.50;;
30543;SDS011;43388;46.308;4.600;2023-07-29T04:32:01;5.50;;;2.75;;
30543;SDS011;43388;46.308;4.600;2023-07-29T04:34:27;3.10;;;2.40;;
30543;SDS011;43388;46.308;4.600;2023-07-29T04:36:53;3.30;;;2.25;;
30543;SDS011;43388;46.308;4.600;2023-07-29T04:39:19;4.68;;;2.25;;
30543;SDS011;43388;46.308;4.600;2023-07-29T04:41:45;4.07;;;2.05;;
30543;SDS011;43388;46.308;4.600;2023-07-29T04:44:11;4.50;;;2.28;;
30543;SDS011;43388;46.308;4.600;2023-07-29T04:46:37;3.08;;;2.33;;
30543;SDS011;43388;46.308;4.600;2023-07-29T04:49:03;3.78;;;1.90;;
30543;SDS011;43388;46.308;4.600;2023-07-29T04:51:29;2.28;;;2.08;;
30543;SDS011;43388;46.308;4.600;2023-07-29T04:53:57;2.47;;;2.13;;
30543;SDS011;43388;46.308;4.600;2023-07-29T04:56:23;2.65;;;2.35;;
30543;SDS011;43388;46.308;4.600;2023-07-29T04:58:49;1.83;;;1.73;;
30543;SDS011;43388;46.308;4.600;2023-07-29T05:01:15;2.45;;;2.08;;
30543;SDS011;43388;46.308;4.600;2023-07-29T05:03:41;5.00;;;1.95;;
30543;SDS011;43388;46.308;4.600;2023-07-29T05:06:07;3.72;;;2.33;;
30543;SDS011;43388;46.308;4.600;2023-07-29T05:08:33;2.20;;;2.00;;
30543;SDS011;43388;46.308;4.600;2023-07-29T05:10:59;3.10;;;2.20;;
30543;SDS011;43388;46.308;4.600;2023-07-29T05:13:25;2.00;;;1.80;;
30543;SDS011;43388;46.308;4.600;2023-07-29T05:15:51;3.33;;;2.17;;
30543;SDS011;43388;46.308;4.600;2023-07-29T05:18:17;5.05;;;2.03;;
30543;SDS011;43388;46.308;4.600;2023-07-29T05:20:43;3.75;;;2.45;;
30543;SDS011;43388;46.308;4.600;2023-07-29T05:23:09;4.47;;;2.75;;
30543;SDS011;43388;46.308;4.600;2023-07-29T05:25:35;2.63;;;2.22;;
30543;SDS011;43388;46.308;4.600;2023-07-29T05:28:02;3.85;;;2.40;;
30543;SDS011;43388;46.308;4.600;2023-07-29T05:30:28;2.30;;;2.20;;
30543;SDS011;43388;46.308;4.600;2023-07-29T05:32:59;2.88;;;2.13;;
30543;SDS011;43388;46.308;4.600;2023-07-29T05:35:25;2.53;;;2.05;;
30543;SDS011;43388;46.308;4.600;2023-07-29T05:37:51;1.95;;;1.85;;
30543;SDS011;43388;46.308;4.600;2023-07-29T05:40:17;2.47;;;2.22;;
30543;SDS011;43388;46.308;4.600;2023-07-29T05:42:43;2.83;;;2.45;;
30543;SDS011;43388;46.308;4.600;2023-07-29T05:45:10;4.03;;;2.15;;
30543;SDS011;43388;46.308;4.600;2023-07-29T05:47:36;2.58;;;2.17;;
30543;SDS011;43388;46.308;4.600;2023-07-29T05:50:03;3.97;;;2.53;;
30543;SDS011;43388;46.308;4.600;2023-07-29T05:52:30;4.50;;;2.65;;
30543;SDS011;43388;46.308;4.600;2023-07-29T05:54:56;2.60;;;2.28;;
30543;SDS011;43388;46.308;4.600;2023-07-29T05:57:22;3.10;;;2.22;;
30543;SDS011;43388;46.308;4.600;2023-07-29T05:59:48;2.70;;;2.50;;
30543;SDS011;43388;46.308;4.600;2023-07-29T06:02:14;3.65;;;2.10;;
30543;SDS011;43388;46.308;4.600;2023-07-29T06:04:40;4.30;;;2.67;;
30543;SDS011;43388;46.308;4.600;2023-07-29T06:07:06;2.50;;;2.30;;
30543;SDS011;43388;46.308;4.600;2023-07-29T06:09:32;1.98;;;1.80;;
30543;SDS011;43388;46.308;4.600;2023-07-29T06:11:58;2.63;;;2.08;;
30543;SDS011;43388;46.308;4.600;2023-07-29T06:14:24;2.58;;;2.38;;
30543;SDS011;43388;46.308;4.600;2023-07-29T06:16:50;2.78;;;2.45;;
30543;SDS011;43388;46.308;4.600;2023-07-29T06:19:16;2.15;;;1.95;;
30543;SDS011;43388;46.308;4.600;2023-07-29T06:21:42;3.83;;;1.77;;
30543;SDS011;43388;46.308;4.600;2023-07-29T06:24:08;2.53;;;2.33;;
30543;SDS011;43388;46.308;4.600;2023-07-29T06:26:34;2.92;;;2.42;;
30543;SDS011;43388;46.308;4.600;2023-07-29T06:29:00;8.25;;;2.80;;
30543;SDS011;43388;46.308;4.600;2023-07-29T06:31:26;2.28;;;2.10;;
30543;SDS011;43388;46.308;4.600;2023-07-29T06:33:52;5.50;;;2.50;;
30543;SDS011;43388;46.308;4.600;2023-07-29T06:36:19;2.70;;;2.50;;
30543;SDS011;43388;46.308;4.600;2023-07-29T06:38:45;5.32;;;2.40;;
30543;SDS011;43388;46.308;4.600;2023-07-29T06:41:11;2.67;;;2.40;;
30543;SDS011;43388;46.308;4.600;2023-07-29T06:43:37;3.63;;;2.72;;
30543;SDS011;43388;46.308;4.600;2023-07-29T06:46:03;4.13;;;2.90;;
30543;SDS011;43388;46.308;4.600;2023-07-29T06:48:29;5.35;;;2.40;;
30543;SDS011;43388;46.308;4.600;2023-07-29T06:50:55;3.35;;;2.45;;
30543;SDS011;43388;46.308;4.600;2023-07-29T06:53:25;2.80;;;2.55;;
30543;SDS011;43388;46.308;4.600;2023-07-29T06:55:51;2.60;;;2.40;;
30543;SDS011;43388;46.308;4.600;2023-07-29T06:58:17;4.18;;;2.70;;
30543;SDS011;43388;46.308;4.600;2023-07-29T07:00:43;4.03;;;1.90;;
30543;SDS011;43388;46.308;4.600;2023-07-29T07:03:09;3.53;;;2.72;;
30543;SDS011;43388;46.308;4.600;2023-07-29T07:05:35;12.43;;;5.45;;
30543;SDS011;43388;46.308;4.600;2023-07-29T07:08:01;5.03;;;3.47;;
30543;SDS011;43388;46.308;4.600;2023-07-29T07:10:27;3.83;;;3.10;;
30543;SDS011;43388;46.308;4.600;2023-07-29T07:12:53;18.77;;;6.47;;
30543;SDS011;43388;46.308;4.600;2023-07-29T07:15:19;3.63;;;3.30;;
30543;SDS011;43388;46.308;4.600;2023-07-29T07:17:45;5.50;;;2.80;;
30543;SDS011;43388;46.308;4.600;2023-07-29T07:20:11;4.68;;;3.10;;
30543;SDS011;43388;46.308;4.600;2023-07-29T07:22:37;8.27;;;2.67;;
30543;SDS011;43388;46.308;4.600;2023-07-29T07:25:04;4.47;;;3.20;;
30543;SDS011;43388;46.308;4.600;2023-07-29T07:27:30;4.47;;;2.75;;
30543;SDS011;43388;46.308;4.600;2023-07-29T07:29:56;2.92;;;2.72;;
30543;SDS011;43388;46.308;4.600;2023-07-29T07:32:22;5.10;;;2.75;;
30543;SDS011;43388;46.308;4.600;2023-07-29T07:34:48;4.22;;;3.20;;
30543;SDS011;43388;46.308;4.600;2023-07-29T07:37:14;8.05;;;3.45;;
30543;SDS011;43388;46.308;4.600;2023-07-29T07:39:40;6.78;;;4.13;;
30543;SDS011;43388;46.308;4.600;2023-07-29T07:42:06;3.80;;;3.50;;
30543;SDS011;43388;46.308;4.600;2023-07-29T07:44:32;3.80;;;3.00;;
30543;SDS011;43388;46.308;4.600;2023-07-29T07:46:58;4.85;;;3.30;;
30543;SDS011;43388;46.308;4.600;2023-07-29T07:49:24;9.85;;;3.10;;
30543;SDS011;43388;46.308;4.600;2023-07-29T07:51:50;3.42;;;3.10;;
30543;SDS011;43388;46.308;4.600;2023-07-29T07:54:16;5.35;;;3.00;;
30543;SDS011;43388;46.308;4.600;2023-07-29T07:56:43;5.78;;;3.33;;
30543;SDS011;43388;46.308;4.600;2023-07-29T07:59:09;4.05;;;3.22;;
30543;SDS011;43388;46.308;4.600;2023-07-29T08:01:35;4.13;;;3.72;;
30543;SDS011;43388;46.308;4.600;2023-07-29T08:04:01;9.68;;;3.58;;
30543;SDS011;43388;46.308;4.600;2023-07-29T08:06:27;3.55;;;3.25;;
30543;SDS011;43388;46.308;4.600;2023-07-29T08:08:53;3.78;;;3.47;;
30543;SDS011;43388;46.308;4.600;2023-07-29T08:11:19;3.97;;;3.17;;
30543;SDS011;43388;46.308;4.600;2023-07-29T08:13:45;3.72;;;3.35;;
30543;SDS011;43388;46.308;4.600;2023-07-29T08:16:11;3.53;;;3.22;;
30543;SDS011;43388;46.308;4.600;2023-07-29T08:18:38;3.70;;;3.17;;
30543;SDS011;43388;46.308;4.600;2023-07-29T08:21:04;8.55;;;3.70;;
30543;SDS011;43388;46.308;4.600;2023-07-29T08:23:30;4.00;;;3.58;;
30543;SDS011;43388;46.308;4.600;2023-07-29T08:25:57;5.03;;;3.60;;
30543;SDS011;43388;46.308;4.600;2023-07-29T08:28:48;6.70;;;3.65;;
30543;SDS011;43388;46.308;4.600;2023-07-29T08:31:13;5.18;;;3.80;;
30543;SDS011;43388;46.308;4.600;2023-07-29T08:33:39;3.95;;;3.65;;
30543;SDS011;43388;46.308;4.600;2023-07-29T08:36:05;3.97;;;3.55;;
30543;SDS011;43388;46.308;4.600;2023-07-29T08:38:31;5.57;;;4.47;;
30543;SDS011;43388;46.308;4.600;2023-07-29T08:43:29;5.05;;;4.65;;
30543;SDS011;43388;46.308;4.600;2023-07-29T08:45:58;4.38;;;4.05;;
30543;SDS011;43388;46.308;4.600;2023-07-29T08:48:40;14.70;;;5.57;;
30543;SDS011;43388;46.308;4.600;2023-07-29T08:51:07;4.95;;;4.43;;
30543;SDS011;43388;46.308;4.600;2023-07-29T08:53:34;4.65;;;4.25;;
30543;SDS011;43388;46.308;4.600;2023-07-29T08:56:00;3.90;;;3.58;;
30543;SDS011;43388;46.308;4.600;2023-07-29T08:58:27;3.80;;;3.50;;
30543;SDS011;43388;46.308;4.600;2023-07-29T09:00:53;3.83;;;3.45;;
30543;SDS011;43388;46.308;4.600;2023-07-29T09:03:19;4.05;;;3.75;;
30543;SDS011;43388;46.308;4.600;2023-07-29T09:05:45;6.25;;;3.90;;
30543;SDS011;43388;46.308;4.600;2023-07-29T09:08:11;5.22;;;4.18;;
30543;SDS011;43388;46.308;4.600;2023-07-29T09:10:38;4.50;;;4.10;;
30543;SDS011;43388;46.308;4.600;2023-07-29T09:13:04;4.63;;;3.72;;
30543;SDS011;43388;46.308;4.600;2023-07-29T09:15:32;4.28;;;3.88;;
30543;SDS011;43388;46.308;4.600;2023-07-29T09:17:58;4.05;;;3.65;;
30543;SDS011;43388;46.308;4.600;2023-07-29T09:20:25;3.72;;;3.42;;
30543;SDS011;43388;46.308;4.600;2023-07-29T09:22:52;4.22;;;3.67;;
30543;SDS011;43388;46.308;4.600;2023-07-29T09:25:25;4.72;;;4.07;;
30543;SDS011;43388;46.308;4.600;2023-07-29T09:27:51;3.70;;;3.33;;
30543;SDS011;43388;46.308;4.600;2023-07-29T09:30:17;4.70;;;4.15;;
30543;SDS011;43388;46.308;4.600;2023-07-29T09:32:43;5.03;;;4.53;;
30543;SDS011;43388;46.308;4.600;2023-07-29T09:35:10;5.80;;;5.18;;
30543;SDS011;43388;46.308;4.600;2023-07-29T09:37:37;4.97;;;4.25;;
30543;SDS011;43388;46.308;4.600;2023-07-29T09:40:04;8.82;;;6.80;;
30543;SDS011;43388;46.308;4.600;2023-07-29T09:42:30;3.63;;;3.38;;
30543;SDS011;43388;46.308;4.600;2023-07-29T09:44:56;6.03;;;3.88;;
30543;SDS011;43388;46.308;4.600;2023-07-29T09:47:22;4.07;;;3.65;;
30543;SDS011;43388;46.308;4.600;2023-07-29T09:49:49;3.50;;;3.20;;
30543;SDS011;43388;46.308;4.600;2023-07-29T09:52:17;4.35;;;3.85;;
30543;SDS011;43388;46.308;4.600;2023-07-29T09:54:43;4.40;;;4.05;;
30543;SDS011;43388;46.308;4.600;2023-07-29T09:57:10;4.15;;;3.85;;
30543;SDS011;43388;46.308;4.600;2023-07-29T09:59:37;6.97;;;4.30;;
30543;SDS011;43388;46.308;4.600;2023-07-29T10:02:03;6.38;;;4.80;;
30543;SDS011;43388;46.308;4.600;2023-07-29T10:04:29;5.10;;;4.63;;
30543;SDS011;43388;46.308;4.600;2023-07-29T10:06:57;7.80;;;5.70;;
30543;SDS011;43388;46.308;4.600;2023-07-29T10:09:23;6.47;;;4.72;;
30543;SDS011;43388;46.308;4.600;2023-07-29T10:11:50;38.38;;;31.73;;
30543;SDS011;43388;46.308;4.600;2023-07-29T10:14:18;35.03;;;26.30;;
30543;SDS011;43388;46.308;4.600;2023-07-29T10:16:44;48.80;;;37.55;;
30543;SDS011;43388;46.308;4.600;2023-07-29T10:19:11;80.90;;;66.05;;
30543;SDS011;43388;46.308;4.600;2023-07-29T10:21:39;120.80;;;103.75;;
30543;SDS011;43388;46.308;4.600;2023-07-29T10:24:09;60.42;;;53.67;;
30543;SDS011;43388;46.308;4.600;2023-07-29T10:26:37;87.60;;;77.32;;
30543;SDS011;43388;46.308;4.600;2023-07-29T10:29:05;46.90;;;36.72;;
30543;SDS011;43388;46.308;4.600;2023-07-29T10:31:33;17.75;;;12.98;;
30543;SDS011;43388;46.308;4.600;2023-07-29T10:33:59;11.60;;;9.63;;
30543;SDS011;43388;46.308;4.600;2023-07-29T10:36:26;17.48;;;12.68;;
30543;SDS011;43388;46.308;4.600;2023-07-29T10:38:52;17.65;;;14.85;;
30543;SDS011;43388;46.308;4.600;2023-07-29T10:41:19;15.77;;;12.18;;
30543;SDS011;43388;46.308;4.600;2023-07-29T10:43:45;26.35;;;17.65;;
30543;SDS011;43388;46.308;4.600;2023-07-29T10:46:18;19.95;;;12.52;;
30543;SDS011;43388;46.308;4.600;2023-07-29T10:48:51;21.52;;;15.55;;
30543;SDS011;43388;46.308;4.600;2023-07-29T10:51:30;37.75;;;29.45;;
30543;SDS011;43388;46.308;4.600;2023-07-29T10:54:03;40.78;;;35.30;;
30543;SDS011;43388;46.308;4.600;2023-07-29T10:56:33;44.50;;;39.90;;
30543;SDS011;43388;46.308;4.600;2023-07-29T11:01:41;29.23;;;25.05;;
30543;SDS011;43388;46.308;4.600;2023-07-29T11:09:42;129.25;;;115.80;;
30543;SDS011;43388;46.308;4.600;2023-07-29T11:14:53;90.53;;;80.80;;
30543;SDS011;43388;46.308;4.600;2023-07-29T11:17:19;40.83;;;36.53;;
30543;SDS011;43388;46.308;4.600;2023-07-29T11:19:45;57.97;;;51.85;;
30543;SDS011;43388;46.308;4.600;2023-07-29T11:22:12;54.00;;;47.60;;
30543;SDS011;43388;46.308;4.600;2023-07-29T11:24:38;27.27;;;24.33;;
30543;SDS011;43388;46.308;4.600;2023-07-29T11:27:11;19.00;;;16.08;;
30543;SDS011;43388;46.308;4.600;2023-07-29T11:29:37;42.28;;;36.47;;
30543;SDS011;43388;46.308;4.600;2023-07-29T11:32:03;16.40;;;10.93;;
30543;SDS011;43388;46.308;4.600;2023-07-29T11:34:32;11.15;;;9.60;;
30543;SDS011;43388;46.308;4.600;2023-07-29T11:36:58;11.57;;;8.82;;
30543;SDS011;43388;46.308;4.600;2023-07-29T11:39:24;7.18;;;6.47;;
30543;SDS011;43388;46.308;4.600;2023-07-29T11:41:50;7.20;;;5.65;;
30543;SDS011;43388;46.308;4.600;2023-07-29T11:44:16;5.45;;;4.72;;
30543;SDS011;43388;46.308;4.600;2023-07-29T11:46:43;7.88;;;7.20;;
30543;SDS011;43388;46.308;4.600;2023-07-29T11:49:09;18.35;;;16.55;;
30543;SDS011;43388;46.308;4.600;2023-07-29T11:51:36;16.55;;;14.95;;
30543;SDS011;43388;46.308;4.600;2023-07-29T11:54:02;7.30;;;6.57;;
30543;SDS011;43388;46.308;4.600;2023-07-29T11:56:28;6.53;;;5.95;;
30543;SDS011;43388;46.308;4.600;2023-07-29T11:58:55;9.75;;;8.75;;
30543;SDS011;43388;46.308;4.600;2023-07-29T12:01:22;6.85;;;5.95;;
30543;SDS011;43388;46.308;4.600;2023-07-29T12:03:48;9.20;;;6.20;;
30543;SDS011;43388;46.308;4.600;2023-07-29T12:06:15;6.40;;;5.53;;
30543;SDS011;43388;46.308;4.600;2023-07-29T12:08:41;7.85;;;5.60;;
30543;SDS011;43388;46.308;4.600;2023-07-29T12:11:08;7.80;;;4.80;;
30543;SDS011;43388;46.308;4.600;2023-07-29T12:13:36;6.10;;;5.00;;
30543;SDS011;43388;46.308;4.600;2023-07-29T12:16:02;5.90;;;5.35;;
30543;SDS011;43388;46.308;4.600;2023-07-29T12:18:29;7.68;;;5.38;;
30543;SDS011;43388;46.308;4.600;2023-07-29T12:20:56;7.00;;;5.05;;
30543;SDS011;43388;46.308;4.600;2023-07-29T12:23:26;9.40;;;7.55;;
30543;SDS011;43388;46.308;4.600;2023-07-29T12:25:56;8.90;;;4.60;;
30543;SDS011;43388;46.308;4.600;2023-07-29T12:28:22;5.38;;;4.88;;
30543;SDS011;43388;46.308;4.600;2023-07-29T12:30:53;4.72;;;4.22;;
30543;SDS011;43388;46.308;4.600;2023-07-29T12:33:37;10.32;;;5.43;;
30543;SDS011;43388;46.308;4.600;2023-07-29T12:36:04;4.47;;;4.07;;
30543;SDS011;43388;46.308;4.600;2023-07-29T12:38:30;5.35;;;4.15;;
30543;SDS011;43388;46.308;4.600;2023-07-29T12:40:56;7.65;;;5.88;;
30543;SDS011;43388;46.308;4.600;2023-07-29T12:43:22;4.05;;;3.75;;
30543;SDS011;43388;46.308;4.600;2023-07-29T12:45:52;4.43;;;4.03;;
30543;SDS011;43388;46.308;4.600;2023-07-29T12:48:18;4.93;;;4.43;;
30543;SDS011;43388;46.308;4.600;2023-07-29T12:50:44;7.25;;;4.28;;
30543;SDS011;43388;46.308;4.600;2023-07-29T12:53:10;14.18;;;11.88;;
30543;SDS011;43388;46.308;4.600;2023-07-29T12:55:36;13.05;;;10.32;;
30543;SDS011;43388;46.308;4.600;2023-07-29T12:58:02;17.10;;;14.52;;
30543;SDS011;43388;46.308;4.600;2023-07-29T13:00:28;11.98;;;10.13;;
30543;SDS011;43388;46.308;4.600;2023-07-29T13:02:55;7.93;;;7.13;;
30543;SDS011;43388;46.308;4.600;2023-07-29T13:05:21;9.95;;;8.25;;
30543;SDS011;43388;46.308;4.600;2023-07-29T13:07:47;29.33;;;26.08;;
30543;SDS011;43388;46.308;4.600;2023-07-29T13:10:13;9.20;;;7.35;;
30543;SDS011;43388;46.308;4.600;2023-07-29T13:12:39;7.20;;;6.03;;
30543;SDS011;43388;46.308;4.600;2023-07-29T13:15:06;12.77;;;11.43;;
30543;SDS011;43388;46.308;4.600;2023-07-29T13:17:32;30.83;;;27.63;;
30543;SDS011;43388;46.308;4.600;2023-07-29T13:19:58;13.32;;;11.30;;
30543;SDS011;43388;46.308;4.600;2023-07-29T13:22:24;6.13;;;5.55;;
30543;SDS011;43388;46.308;4.600;2023-07-29T13:24:51;6.13;;;5.53;;
30543;SDS011;43388;46.308;4.600;2023-07-29T13:27:17;6.03;;;5.53;;
30543;SDS011;43388;46.308;4.600;2023-07-29T13:29:43;12.13;;;9.80;;
30543;SDS011;43388;46.308;4.600;2023-07-29T13:32:09;4.82;;;4.35;;
30543;SDS011;43388;46.308;4.600;2023-07-29T13:34:35;5.30;;;4.88;;
30543;SDS011;43388;46.308;4.600;2023-07-29T13:37:01;4.78;;;4.00;;
30543;SDS011;43388;46.308;4.600;2023-07-29T13:39:27;4.68;;;4.28;;
30543;SDS011;43388;46.308;4.600;2023-07-29T13:41:54;6.20;;;4.90;;
30543;SDS011;43388;46.308;4.600;2023-07-29T13:44:20;4.97;;;4.47;;
30543;SDS011;43388;46.308;4.600;2023-07-29T13:46:46;5.10;;;4.60;;
30543;SDS011;43388;46.308;4.600;2023-07-29T13:49:12;5.20;;;4.63;;
30543;SDS011;43388;46.308;4.600;2023-07-29T13:51:38;5.53;;;4.13;;
30543;SDS011;43388;46.308;4.600;2023-07-29T13:54:04;5.25;;;4.05;;
30543;SDS011;43388;46.308;4.600;2023-07-29T13:56:30;5.85;;;4.15;;
30543;SDS011;43388;46.308;4.600;2023-07-29T13:58:56;3.67;;;3.42;;
30543;SDS011;43388;46.308;4.600;2023-07-29T14:01:22;4.30;;;3.38;;
30543;SDS011;43388;46.308;4.600;2023-07-29T14:03:48;4.07;;;3.78;;
30543;SDS011;43388;46.308;4.600;2023-07-29T14:06:14;4.15;;;3.85;;
30543;SDS011;43388;46.308;4.600;2023-07-29T14:08:40;4.60;;;4.25;;
30543;SDS011;43388;46.308;4.600;2023-07-29T14:11:07;4.35;;;3.95;;
30543;SDS011;43388;46.308;4.600;2023-07-29T14:13:33;4.70;;;4.28;;
30543;SDS011;43388;46.308;4.600;2023-07-29T14:16:02;5.55;;;3.60;;
30543;SDS011;43388;46.308;4.600;2023-07-29T14:18:28;4.25;;;3.85;;
30543;SDS011;43388;46.308;4.600;2023-07-29T14:20:54;4.05;;;3.67;;
30543;SDS011;43388;46.308;4.600;2023-07-29T14:23:20;3.25;;;2.95;;
30543;SDS011;43388;46.308;4.600;2023-07-29T14:25:46;3.53;;;3.22;;
30543;SDS011;43388;46.308;4.600;2023-07-29T14:28:12;3.63;;;3.33;;
30543;SDS011;43388;46.308;4.600;2023-07-29T14:30:38;3.97;;;3.47;;
30543;SDS011;43388;46.308;4.600;2023-07-29T14:33:06;3.65;;;3.35;;
30543;SDS011;43388;46.308;4.600;2023-07-29T14:35:32;3.92;;;3.53;;
30543;SDS011;43388;46.308;4.600;2023-07-29T14:37:58;3.33;;;2.97;;
30543;SDS011;43388;46.308;4.600;2023-07-29T14:40:24;3.65;;;3.35;;
30543;SDS011;43388;46.308;4.600;2023-07-29T14:42:50;3.92;;;3.58;;
30543;SDS011;43388;46.308;4.600;2023-07-29T14:45:16;13.82;;;3.58;;
30543;SDS011;43388;46.308;4.600;2023-07-29T14:47:42;3.95;;;3.60;;
30543;SDS011;43388;46.308;4.600;2023-07-29T14:50:08;4.32;;;3.60;;
30543;SDS011;43388;46.308;4.600;2023-07-29T14:52:34;3.60;;;3.30;;
30543;SDS011;43388;46.308;4.600;2023-07-29T14:55:00;6.85;;;3.47;;
30543;SDS011;43388;46.308;4.600;2023-07-29T14:57:26;5.18;;;3.67;;
30543;SDS011;43388;46.308;4.600;2023-07-29T14:59:52;3.58;;;3.28;;